createdAt,value
2019-02-18T00:00:20.140Z,9.50
2019-02-18T00:02:49.086Z,9.40
2019-02-18T00:05:17.754Z,9.47
2019-02-18T00:07:46.390Z,9.90
2019-02-18T00:10:15.227Z,10.60
2019-02-18T00:12:43.970Z,9.27
2019-02-18T00:15:12.856Z,9.67
2019-02-18T00:17:41.789Z,8.77
2019-02-18T00:20:10.883Z,10.43
2019-02-18T00:22:39.715Z,9.50
2019-02-18T00:25:08.746Z,9.93
2019-02-18T00:27:37.552Z,9.80
2019-02-18T00:30:08.439Z,8.83
2019-02-18T00:32:37.127Z,8.83
2019-02-18T00:35:05.901Z,8.80
2019-02-18T00:37:34.644Z,8.40
2019-02-18T00:40:03.835Z,8.87
2019-02-18T00:42:32.728Z,9.03
2019-02-18T00:45:01.349Z,8.70
2019-02-18T00:47:30.057Z,10.13
2019-02-18T00:49:58.885Z,9.70
2019-02-18T00:52:27.672Z,8.90
2019-02-18T00:54:58.041Z,8.83
2019-02-18T00:57:27.074Z,8.00
2019-02-18T00:59:56.167Z,8.93
2019-02-18T01:02:24.969Z,7.90
2019-02-18T01:04:53.657Z,8.73
2019-02-18T01:07:22.383Z,8.47
2019-02-18T01:09:51.182Z,9.10
2019-02-18T01:12:20.014Z,8.30
2019-02-18T01:14:50.375Z,8.93
2019-02-18T01:17:19.088Z,8.27
2019-02-18T01:19:48.811Z,8.50
2019-02-18T01:22:17.577Z,8.37
2019-02-18T01:24:46.260Z,8.83
2019-02-18T01:27:15.194Z,8.27
2019-02-18T01:29:43.844Z,8.90
2019-02-18T01:32:12.506Z,8.90
2019-02-18T01:34:41.536Z,8.77
2019-02-18T01:37:10.257Z,9.40
2019-02-18T01:39:39.833Z,9.43
2019-02-18T01:42:08.583Z,8.70
2019-02-18T01:44:37.520Z,8.17
2019-02-18T01:47:06.150Z,8.40
2019-02-18T01:49:34.886Z,9.20
2019-02-18T01:52:03.573Z,9.07
2019-02-18T01:54:32.255Z,9.33
2019-02-18T01:57:01.065Z,8.47
2019-02-18T01:59:29.759Z,8.40
2019-02-18T02:01:58.367Z,9.40
2019-02-18T02:04:27.606Z,9.47
2019-02-18T02:06:56.395Z,10.37
2019-02-18T02:09:26.001Z,9.47
2019-02-18T02:11:55.151Z,9.40
2019-02-18T02:14:23.859Z,9.10
2019-02-18T02:16:52.598Z,8.40
2019-02-18T02:19:21.209Z,9.57
2019-02-18T02:21:50.343Z,8.60
2019-02-18T02:24:19.438Z,8.60
2019-02-18T02:26:48.533Z,8.90
2019-02-18T02:29:17.587Z,8.80
2019-02-18T02:31:46.619Z,8.70
2019-02-18T02:34:15.368Z,9.53
2019-02-18T02:36:44.089Z,8.50
2019-02-18T02:39:12.647Z,8.53
2019-02-18T02:41:41.482Z,9.43
2019-02-18T02:44:10.552Z,9.07
2019-02-18T02:46:39.645Z,8.77
2019-02-18T02:49:08.233Z,9.70
2019-02-18T02:51:37.423Z,9.80
2019-02-18T02:54:06.166Z,10.03
2019-02-18T02:56:37.319Z,9.60
2019-02-18T02:59:05.149Z,7.97
2019-02-18T03:01:33.910Z,8.90
2019-02-18T03:04:02.585Z,9.20
2019-02-18T03:06:31.271Z,10.00
2019-02-18T03:08:59.960Z,9.27
2019-02-18T03:11:28.595Z,8.73
2019-02-18T03:13:57.256Z,9.27
2019-02-18T03:16:25.964Z,9.10
2019-02-18T03:18:54.592Z,8.90
2019-02-18T03:21:23.228Z,9.77
2019-02-18T03:23:52.018Z,8.93
2019-02-18T03:26:20.639Z,8.87
2019-02-18T03:29:04.586Z,9.43
2019-02-18T03:31:33.474Z,9.03
2019-02-18T03:34:08.036Z,9.40
2019-02-18T03:36:36.985Z,8.70
2019-02-18T03:39:06.649Z,9.00
2019-02-18T03:41:35.656Z,8.73
2019-02-18T03:44:04.435Z,10.07
2019-02-18T03:46:33.128Z,9.60
2019-02-18T03:49:01.942Z,9.27
2019-02-18T03:51:31.034Z,8.80
2019-02-18T03:53:59.729Z,9.30
2019-02-18T03:56:28.508Z,9.20
2019-02-18T03:58:57.221Z,8.83
2019-02-18T04:01:26.140Z,10.20
2019-02-18T04:03:54.823Z,9.43
2019-02-18T04:06:23.655Z,9.07
2019-02-18T04:08:52.703Z,9.77
2019-02-18T04:11:21.493Z,9.07
2019-02-18T04:13:50.298Z,8.83
2019-02-18T04:16:19.312Z,9.33
2019-02-18T04:18:48.204Z,8.23
2019-02-18T04:21:16.847Z,9.07
2019-02-18T04:23:45.638Z,9.37
2019-02-18T04:26:14.272Z,8.70
2019-02-18T04:28:43.007Z,9.63
2019-02-18T04:31:11.633Z,8.90
2019-02-18T04:33:40.412Z,9.90
2019-02-18T04:36:09.153Z,9.07
2019-02-18T04:38:37.883Z,9.17
2019-02-18T04:41:06.504Z,8.83
2019-02-18T04:43:35.233Z,9.20
2019-02-18T04:46:04.039Z,8.90
2019-02-18T04:48:32.677Z,9.93
2019-02-18T04:51:01.311Z,9.10
2019-02-18T04:53:29.940Z,8.70
2019-02-18T04:55:58.879Z,9.27
2019-02-18T04:58:27.971Z,8.80
2019-02-18T05:00:56.563Z,9.83
2019-02-18T05:03:25.194Z,9.57
2019-02-18T05:05:53.883Z,9.67
2019-02-18T05:08:22.608Z,7.97
2019-02-18T05:10:51.198Z,9.43
2019-02-18T05:13:19.873Z,8.23
2019-02-18T05:15:48.528Z,8.70
2019-02-18T05:18:17.140Z,9.43
2019-02-18T05:20:45.828Z,9.30
2019-02-18T05:23:14.672Z,9.87
2019-02-18T05:25:43.616Z,9.20
2019-02-18T05:28:12.814Z,8.40
2019-02-18T05:30:47.205Z,9.40
2019-02-18T05:33:12.177Z,9.23
2019-02-18T05:35:40.859Z,9.20
2019-02-18T05:38:09.614Z,9.37
2019-02-18T05:40:38.828Z,9.40
2019-02-18T05:43:07.421Z,8.73
2019-02-18T05:45:36.418Z,8.10
2019-02-18T05:48:05.159Z,9.67
2019-02-18T05:50:34.290Z,8.93
2019-02-18T05:53:03.130Z,7.93
2019-02-18T05:55:31.868Z,9.57
2019-02-18T05:58:00.904Z,8.93
2019-02-18T06:00:29.798Z,9.03
2019-02-18T06:02:58.347Z,8.63
2019-02-18T06:05:27.177Z,9.07
2019-02-18T06:07:55.785Z,8.67
2019-02-18T06:10:24.487Z,8.43
2019-02-18T06:12:53.167Z,8.53
2019-02-18T06:15:22.003Z,8.67
2019-02-18T06:17:50.685Z,8.70
2019-02-18T06:20:19.677Z,8.90
2019-02-18T06:22:48.380Z,8.80
2019-02-18T06:25:16.995Z,7.93
2019-02-18T06:27:45.830Z,9.07
2019-02-18T06:30:14.526Z,8.50
2019-02-18T06:32:43.419Z,8.20
2019-02-18T06:35:12.368Z,8.90
2019-02-18T06:37:41.093Z,9.07
2019-02-18T06:40:10.279Z,8.17
2019-02-18T06:42:38.926Z,7.63
2019-02-18T06:45:11.982Z,7.80
2019-02-18T06:47:40.750Z,8.63
2019-02-18T06:50:09.735Z,8.10
2019-02-18T06:52:38.826Z,8.50
2019-02-18T06:55:07.709Z,8.80
2019-02-18T06:57:54.487Z,8.20
2019-02-18T07:00:23.981Z,9.30
2019-02-18T07:02:54.343Z,8.80
2019-02-18T07:05:24.959Z,8.90
2019-02-18T07:07:55.252Z,8.77
2019-02-18T07:10:25.514Z,8.60
2019-02-18T07:12:54.120Z,8.10
2019-02-18T07:15:23.254Z,8.53
2019-02-18T07:17:51.934Z,8.67
2019-02-18T07:20:20.662Z,9.20
2019-02-18T07:22:49.510Z,8.50
2019-02-18T07:25:18.168Z,7.90
2019-02-18T07:27:46.985Z,9.27
2019-02-18T07:30:15.735Z,9.57
2019-02-18T07:32:44.452Z,8.80
2019-02-18T07:35:13.180Z,9.37
2019-02-18T07:37:42.377Z,8.90
2019-02-18T07:40:11.162Z,8.87
2019-02-18T07:42:39.821Z,10.50
2019-02-18T07:45:10.068Z,9.00
2019-02-18T07:47:38.688Z,9.37
2019-02-18T07:50:20.377Z,9.10
2019-02-18T07:52:41.712Z,8.93
2019-02-18T07:55:10.538Z,9.27
2019-02-18T07:57:39.182Z,9.90
2019-02-18T08:00:13.101Z,8.60
2019-02-18T08:02:43.612Z,8.80
2019-02-18T08:05:12.341Z,10.30
2019-02-18T08:07:41.026Z,11.13
2019-02-18T08:10:12.393Z,8.70
2019-02-18T08:12:41.978Z,9.63
2019-02-18T08:15:11.612Z,10.17
2019-02-18T08:17:40.235Z,9.80
2019-02-18T08:22:38.661Z,9.20
2019-02-18T08:25:10.181Z,10.70
2019-02-18T08:27:38.835Z,9.73
2019-02-18T08:30:12.928Z,10.10
2019-02-18T08:32:41.692Z,9.63
2019-02-18T08:52:31.263Z,10.70
2019-02-18T09:24:58.502Z,9.10
2019-02-18T09:27:27.247Z,9.10
2019-02-18T09:29:55.933Z,9.17
2019-02-18T09:32:24.720Z,9.43
2019-02-18T09:34:53.413Z,8.00
2019-02-18T09:37:22.234Z,8.30
2019-02-18T09:39:50.886Z,8.53
2019-02-18T09:42:19.660Z,10.10
2019-02-18T09:44:48.391Z,9.10
2019-02-18T09:47:19.838Z,7.97
2019-02-18T09:49:48.583Z,9.13
2019-02-18T09:52:17.310Z,10.00
2019-02-18T09:54:45.955Z,9.10
2019-02-18T09:57:14.781Z,8.90
2019-02-18T09:59:43.330Z,8.40
2019-02-18T10:02:12.009Z,9.43
2019-02-18T10:04:40.730Z,9.93
2019-02-18T10:07:09.475Z,9.70
2019-02-18T10:09:38.104Z,10.73
2019-02-18T10:12:17.770Z,12.27
2019-02-18T10:14:37.678Z,10.73
2019-02-18T10:17:06.364Z,10.40
2019-02-18T10:19:35.045Z,10.70
2019-02-18T10:22:04.183Z,10.93
2019-02-18T10:24:33.174Z,10.50
2019-02-18T10:27:01.863Z,10.83
2019-02-18T10:29:30.839Z,10.00
2019-02-18T10:32:00.131Z,10.70
2019-02-18T10:34:28.890Z,9.30
2019-02-18T10:36:57.619Z,10.87
2019-02-18T10:39:26.262Z,10.37
2019-02-18T10:41:55.356Z,11.10
2019-02-18T10:44:24.169Z,10.93
2019-02-18T10:46:52.855Z,10.90
2019-02-18T10:49:23.116Z,11.03
2019-02-18T10:51:52.045Z,10.70
2019-02-18T10:54:20.751Z,12.00
2019-02-18T10:56:49.513Z,10.53
2019-02-18T10:59:18.308Z,11.80
2019-02-18T11:01:47.433Z,9.90
2019-02-18T11:04:16.186Z,10.03
2019-02-18T11:06:45.929Z,10.30
2019-02-18T11:09:14.777Z,9.50
2019-02-18T11:11:43.565Z,9.23
2019-02-18T11:14:12.658Z,10.17
2019-02-18T11:16:41.603Z,9.37
2019-02-18T11:19:10.775Z,9.90
2019-02-18T11:21:39.391Z,10.50
2019-02-18T11:24:08.152Z,9.77
2019-02-18T11:26:36.999Z,9.63
2019-02-18T11:29:07.846Z,9.40
2019-02-18T11:31:36.561Z,9.67
2019-02-18T11:34:05.205Z,9.50
2019-02-18T11:36:34.236Z,9.60
2019-02-18T11:39:04.831Z,9.30
2019-02-18T11:41:33.535Z,10.87
2019-02-18T11:44:03.018Z,10.67
2019-02-18T11:46:31.658Z,9.60
2019-02-18T11:49:00.385Z,9.37
2019-02-18T11:51:29.313Z,10.10
2019-02-18T11:53:58.363Z,9.50
2019-02-18T11:56:27.504Z,9.40
2019-02-18T11:58:56.284Z,9.90
2019-02-18T12:01:25.034Z,10.13
2019-02-18T12:03:53.727Z,9.63
2019-02-18T12:06:22.863Z,10.10
2019-02-18T12:08:51.599Z,9.43
2019-02-18T12:11:20.429Z,8.77
2019-02-18T12:13:49.523Z,10.00
2019-02-18T12:16:18.165Z,10.30
2019-02-18T12:18:46.953Z,9.13
2019-02-18T12:21:15.778Z,9.37
2019-02-18T12:23:44.424Z,9.03
2019-02-18T12:26:13.111Z,8.70
2019-02-18T12:28:41.729Z,9.30
2019-02-18T12:31:10.678Z,8.93
2019-02-18T12:33:39.405Z,9.40
2019-02-18T12:36:08.048Z,9.80
2019-02-18T12:38:37.184Z,9.17
2019-02-18T12:41:05.938Z,8.17
2019-02-18T12:43:34.616Z,10.23
2019-02-18T12:46:03.497Z,10.20
2019-02-18T12:48:32.287Z,9.40
2019-02-18T12:51:01.013Z,9.80
2019-02-18T12:53:29.990Z,9.93
2019-02-18T12:55:59.204Z,9.23
2019-02-18T12:58:28.402Z,8.97
2019-02-18T13:00:57.583Z,10.10
2019-02-18T13:03:26.996Z,9.90
2019-02-18T13:05:55.783Z,9.47
2019-02-18T13:08:25.223Z,9.00
2019-02-18T13:10:54.005Z,9.60
2019-02-18T13:13:22.623Z,8.80
2019-02-18T13:15:52.775Z,9.30
2019-02-18T13:18:22.032Z,10.00
2019-02-18T13:20:51.124Z,9.37
2019-02-18T13:23:19.953Z,9.77
2019-02-18T13:25:48.638Z,8.83
2019-02-18T13:28:17.526Z,8.33
2019-02-18T13:30:46.211Z,9.33
2019-02-18T13:33:14.894Z,9.60
2019-02-18T13:35:44.194Z,8.63
2019-02-18T13:38:12.779Z,9.50
2019-02-18T13:40:41.835Z,9.43
2019-02-18T13:43:11.058Z,9.00
2019-02-18T13:45:40.048Z,8.50
2019-02-18T13:48:10.451Z,10.50
2019-02-18T13:50:39.190Z,9.47
2019-02-18T13:53:08.298Z,10.67
2019-02-18T13:55:37.521Z,9.93
2019-02-18T13:58:06.332Z,9.87
2019-02-18T14:00:35.503Z,9.30
2019-02-18T14:03:04.330Z,10.40
2019-02-18T14:05:33.015Z,10.10
2019-02-18T14:08:02.270Z,10.43
2019-02-18T14:10:31.163Z,9.83
2019-02-18T14:13:00.311Z,9.37
2019-02-18T14:15:29.556Z,9.13
2019-02-18T14:17:58.282Z,8.97
2019-02-18T14:20:27.026Z,9.63
2019-02-18T14:22:56.123Z,10.33
2019-02-18T14:25:24.928Z,9.10
2019-02-18T14:27:54.253Z,9.77
2019-02-18T14:30:22.998Z,9.20
2019-02-18T14:32:51.780Z,11.00
2019-02-18T14:35:20.489Z,11.77
2019-02-18T14:37:49.845Z,9.70
2019-02-18T14:40:20.542Z,9.43
2019-02-18T14:42:49.243Z,9.40
2019-02-18T14:45:18.081Z,10.67
2019-02-18T14:47:46.899Z,9.13
2019-02-18T14:50:17.815Z,8.23
2019-02-18T14:52:47.133Z,9.10
2019-02-18T14:55:15.928Z,9.30
2019-02-18T14:58:06.199Z,8.87
2019-02-18T15:00:35.613Z,9.53
2019-02-18T15:03:05.484Z,9.20
2019-02-18T15:05:34.315Z,7.47
2019-02-18T15:08:02.955Z,8.40
2019-02-18T15:10:31.978Z,8.43
2019-02-18T15:13:00.732Z,9.10
2019-02-18T15:15:29.858Z,8.87
2019-02-18T15:17:58.612Z,7.60
2019-02-18T15:20:27.446Z,7.63
2019-02-18T15:22:56.143Z,7.57
2019-02-18T15:25:26.305Z,8.30
2019-02-18T15:27:55.399Z,8.00
2019-02-18T15:30:24.430Z,7.37
2019-02-18T15:32:53.218Z,8.27
2019-02-18T15:35:22.314Z,8.30
2019-02-18T15:37:51.204Z,6.57
2019-02-18T15:40:20.871Z,7.33
2019-02-18T15:42:49.622Z,7.33
2019-02-18T15:45:18.487Z,6.77
2019-02-18T15:47:47.157Z,7.13
2019-02-18T15:50:15.887Z,6.47
2019-02-18T15:52:44.948Z,5.83
2019-02-18T15:55:13.797Z,4.00
2019-02-18T15:57:42.578Z,4.10
2019-02-18T16:00:20.173Z,3.60
2019-02-18T16:02:51.075Z,4.00
2019-02-18T16:05:20.103Z,3.90
2019-02-18T16:07:49.137Z,4.13
2019-02-18T16:10:18.223Z,3.60
2019-02-18T16:12:50.958Z,3.83
2019-02-18T16:15:17.482Z,4.57
2019-02-18T16:17:46.853Z,4.93
2019-02-18T16:20:15.530Z,5.27
2019-02-18T16:22:46.053Z,4.50
2019-02-18T16:25:20.799Z,5.20
2019-02-18T16:27:49.876Z,4.20
2019-02-18T16:30:18.563Z,4.60
2019-02-18T16:32:47.451Z,5.50
2019-02-18T16:35:17.319Z,4.80
2019-02-18T16:37:46.353Z,4.40
2019-02-18T16:40:23.231Z,4.40
2019-02-18T16:42:59.081Z,4.33
2019-02-18T16:45:23.262Z,5.33
2019-02-18T16:47:51.946Z,4.67
2019-02-18T16:50:20.562Z,5.50
2019-02-18T16:52:49.274Z,5.73
2019-02-18T16:55:18.001Z,5.37
2019-02-18T16:57:46.627Z,5.50
2019-02-18T17:00:21.469Z,5.80
2019-02-18T17:02:51.042Z,6.23
2019-02-18T17:05:19.704Z,5.10
2019-02-18T17:07:48.446Z,6.60
2019-02-18T17:10:17.129Z,6.33
2019-02-18T17:12:46.472Z,5.37
2019-02-18T17:15:15.317Z,6.17
2019-02-18T17:17:44.090Z,6.17
2019-02-18T17:20:12.901Z,6.20
2019-02-18T17:22:41.572Z,6.40
2019-02-18T17:25:11.880Z,7.20
2019-02-18T17:27:40.587Z,6.70
2019-02-18T17:30:16.357Z,6.47
2019-02-18T17:32:45.034Z,6.67
2019-02-18T17:35:14.570Z,7.10
2019-02-18T17:37:43.253Z,6.63
2019-02-18T17:40:14.515Z,8.00
2019-02-18T17:42:44.167Z,8.27
2019-02-18T17:45:17.463Z,7.60
2019-02-18T17:47:46.280Z,8.33
2019-02-18T17:50:18.482Z,7.23
2019-02-18T17:52:47.810Z,7.80
2019-02-18T17:55:20.076Z,7.50
2019-02-18T17:57:48.779Z,7.60
2019-02-18T18:00:24.599Z,7.33
2019-02-18T18:02:53.437Z,7.83
2019-02-18T18:05:22.226Z,8.00
2019-02-18T18:07:50.975Z,8.53
2019-02-18T18:10:20.133Z,8.53
2019-02-18T18:12:48.787Z,8.43
2019-02-18T18:15:19.336Z,7.90
2019-02-18T18:17:47.919Z,8.83
2019-02-18T18:20:16.875Z,9.30
2019-02-18T18:22:45.680Z,9.63
2019-02-18T18:25:15.289Z,9.30
2019-02-18T18:27:43.946Z,8.90
2019-02-18T18:30:18.046Z,8.10
2019-02-18T18:32:46.718Z,8.40
2019-02-18T18:35:15.550Z,8.20
2019-02-18T18:37:44.097Z,7.93
2019-02-18T18:40:14.842Z,8.90
2019-02-18T18:42:43.446Z,9.73
2019-02-18T18:45:15.835Z,9.30
2019-02-18T18:47:44.841Z,10.90
2019-02-18T18:50:16.524Z,9.03
2019-02-18T18:52:45.718Z,8.53
2019-02-18T18:55:14.553Z,8.67
2019-02-18T18:57:43.622Z,9.70
2019-02-18T19:00:24.348Z,9.57
2019-02-18T19:02:53.204Z,9.93
2019-02-18T19:05:22.661Z,9.47
2019-02-18T19:07:51.324Z,9.63
2019-02-18T19:10:20.200Z,10.13
2019-02-18T19:12:48.830Z,9.30
2019-02-18T19:15:18.580Z,10.07
2019-02-18T19:17:47.305Z,9.70
2019-02-18T19:20:16.305Z,8.90
2019-02-18T19:22:44.919Z,9.07
2019-02-18T19:25:14.003Z,9.60
2019-02-18T19:27:42.612Z,8.60
2019-02-18T19:30:20.504Z,8.07
2019-02-18T19:32:49.697Z,8.17
2019-02-18T19:35:18.383Z,7.93
2019-02-18T19:37:47.354Z,6.97
2019-02-18T19:40:16.422Z,8.20
2019-02-18T19:42:45.056Z,8.83
2019-02-18T19:45:33.073Z,8.10
2019-02-18T19:48:02.184Z,7.87
2019-02-18T19:50:31.255Z,7.80
2019-02-18T19:52:59.817Z,7.07
2019-02-18T19:55:28.643Z,8.60
2019-02-18T19:57:57.620Z,7.67
2019-02-18T20:00:27.584Z,7.90
2019-02-18T20:02:56.336Z,7.67
2019-02-18T20:05:25.079Z,8.47
2019-02-18T20:07:53.766Z,7.73
2019-02-18T20:10:22.798Z,9.20
2019-02-18T20:12:52.082Z,8.50
2019-02-18T20:15:20.843Z,8.30
2019-02-18T20:17:49.568Z,8.13
2019-02-18T20:20:18.518Z,8.33
2019-02-18T20:22:47.507Z,8.17
2019-02-18T20:25:16.156Z,8.60
2019-02-18T20:27:45.330Z,9.23
2019-02-18T20:30:20.216Z,8.37
2019-02-18T20:32:49.004Z,8.30
2019-02-18T20:35:17.989Z,8.97
2019-02-18T20:37:46.989Z,8.17
2019-02-18T20:40:16.234Z,8.73
2019-02-18T20:42:45.073Z,9.50
2019-02-18T20:45:14.655Z,8.63
2019-02-18T20:47:43.617Z,7.83
2019-02-18T20:50:15.937Z,9.37
2019-02-18T20:52:45.029Z,8.90
2019-02-18T20:55:15.060Z,8.47
2019-02-18T20:57:43.936Z,9.33
2019-02-18T21:00:21.886Z,8.73
2019-02-18T21:02:50.724Z,9.30
2019-02-18T21:05:19.451Z,9.90
2019-02-18T21:07:48.195Z,9.43
2019-02-18T21:10:19.311Z,9.37
2019-02-18T21:12:49.559Z,9.30
2019-02-18T21:15:18.496Z,9.70
2019-02-18T21:17:47.591Z,10.30
2019-02-18T21:20:16.273Z,10.33
2019-02-18T21:22:45.134Z,10.23
2019-02-18T21:25:14.051Z,10.67
2019-02-18T21:27:42.802Z,11.27
2019-02-18T21:30:14.552Z,11.40
2019-02-18T21:32:43.289Z,12.23
2019-02-18T21:35:12.329Z,11.03
2019-02-18T21:37:41.892Z,10.27
2019-02-18T21:40:13.674Z,10.60
2019-02-18T21:42:42.434Z,10.47
2019-02-18T21:45:13.326Z,10.10
2019-02-18T21:47:42.044Z,11.33
2019-02-18T21:50:11.542Z,10.93
2019-02-18T21:52:44.208Z,12.03
2019-02-18T21:55:13.755Z,13.40
2019-02-18T21:57:42.506Z,12.27
2019-02-18T22:00:21.503Z,11.87
2019-02-18T22:02:50.666Z,11.47
2019-02-18T22:05:19.755Z,11.30
2019-02-18T22:07:48.394Z,12.00
2019-02-18T22:10:17.230Z,12.03
2019-02-18T22:12:46.013Z,11.80
2019-02-18T22:15:15.397Z,11.93
2019-02-18T22:17:44.363Z,11.87
2019-02-18T22:20:15.101Z,12.13
2019-02-18T22:22:43.884Z,12.10
2019-02-18T22:25:13.694Z,11.67
2019-02-18T22:27:43.536Z,12.67
2019-02-18T22:30:16.840Z,10.87
2019-02-18T22:32:45.626Z,12.27
2019-02-18T22:35:15.119Z,12.10
2019-02-18T22:37:43.915Z,12.17
2019-02-18T22:40:13.491Z,12.77
2019-02-18T22:42:42.431Z,13.67
2019-02-18T22:45:12.016Z,13.37
2019-02-18T22:47:40.763Z,11.33
2019-02-18T22:50:11.217Z,12.50
2019-02-18T22:52:40.259Z,12.50
2019-02-18T22:55:10.445Z,12.50
2019-02-18T22:57:39.637Z,12.00
2019-02-18T23:00:25.187Z,11.80
2019-02-18T23:02:54.275Z,11.43
2019-02-18T23:05:23.100Z,11.07
2019-02-18T23:07:51.915Z,12.20
2019-02-18T23:10:21.035Z,11.47
2019-02-18T23:12:49.867Z,11.90
2019-02-18T23:15:18.612Z,10.90
2019-02-18T23:17:47.750Z,10.90
2019-02-18T23:20:17.867Z,12.47
2019-02-18T23:22:46.509Z,13.47
2019-02-18T23:25:15.296Z,11.40
2019-02-18T23:27:43.919Z,11.30
2019-02-18T23:30:13.222Z,12.90
2019-02-18T23:32:42.012Z,11.83
2019-02-18T23:35:11.210Z,12.93
2019-02-18T23:37:40.398Z,12.30
2019-02-18T23:40:09.245Z,12.00
2019-02-18T23:42:38.039Z,11.57
2019-02-18T23:45:07.270Z,12.13
2019-02-18T23:47:35.955Z,11.80
2019-02-18T23:50:04.906Z,11.03
2019-02-18T23:52:33.696Z,11.63
2019-02-18T23:55:02.387Z,10.77
2019-02-18T23:57:31.059Z,11.80
2019-02-18T23:59:59.788Z,11.77
